Terminal Aerodrome Forecast
Issued by NWS Wilmington, OH

Current Version | Previous Version | Graphics & Text | Print | Product List | Glossary On
Versions: 1 2 3 4 5 6 7 8 9 10 11 12 13 14 15 16 17 18 19 20 21 22 23 24 25 26 27
000
FTUS41 KILN 291100
TAFCVG
TAF
KCVG 291122Z 2912/3018 26007KT P6SM SCT200
     FM291600 28012G18KT P6SM SCT040
     FM292200 30008KT P6SM SCT040
     FM300400 34004KT P6SM SCT040
     FM301200 VRB03KT P6SM FEW040=

USA.gov is the U.S. government's official web portal to all federal, state and local government web resources and services.